Time;durP1;ratioP1;P1;durP2;ratioP2;P2;SDS_P1;SDS_P2;PMS_P1;PMS_P2;Temp;Humidity;BMP_temperature;BMP_pressure;BME280_temperature;BME280_humidity;BME280_pressure;Samples;Min_cycle;Max_cycle;Signal;HPM_P1;HPM_P2
2022/06/21 00:00:19;;;;;;;4.10;2.42;;;;;;;14.48;93.32;99899.66;1759497;79;25837;-80
2022/06/21 00:02:52;;;;;;;3.90;2.33;;;;;;;14.46;93.41;99899.08;1764209;79;26491;-80
2022/06/21 00:05:34;;;;;;;2.75;2.45;;;;;;;14.44;93.22;99899.31;1760084;79;26052;-80
2022/06/21 00:08:08;;;;;;;7.10;2.42;;;;;;;14.40;93.00;99904.86;1747714;79;27485;-79
2022/06/21 00:10:34;;;;;;;3.52;2.42;;;;;;;14.39;93.11;99901.06;1762733;79;25905;-80
2022/06/21 00:13:08;;;;;;;3.47;2.33;;;;;;;14.41;93.23;99903.00;1764459;79;25321;-81
2022/06/21 00:15:35;;;;;;;4.33;2.55;;;;;;;14.39;93.09;99906.45;1763467;79;26477;-80
2022/06/21 00:18:02;;;;;;;3.75;3.05;;;;;;;14.37;93.25;99908.00;1744172;79;25994;-80
2022/06/21 00:20:28;;;;;;;3.50;3.20;;;;;;;14.35;93.09;99902.02;1749424;79;27462;-80
2022/06/21 00:22:55;;;;;;;4.47;4.08;;;;;;;14.31;92.93;99894.09;1751057;79;26175;-80
2022/06/21 00:25:26;;;;;;;5.03;4.08;;;;;;;14.29;92.83;99888.13;1760784;79;25815;-80
2022/06/21 00:27:53;;;;;;;;;;;;;;;14.28;92.78;99891.02;1763399;79;25859;-80
2022/06/21 00:30:22;;;;;;;5.67;3.95;;;;;;;14.25;92.82;99891.45;1766461;79;25822;-80
2022/06/21 00:32:53;;;;;;;7.58;4.65;;;;;;;14.20;92.74;99896.73;1755039;79;27456;-79
2022/06/21 00:35:21;;;;;;;;;;;;;;;14.16;92.79;99890.12;1773848;79;26545;-79
2022/06/21 00:37:49;;;;;;;6.28;5.00;;;;;;;14.19;93.03;99884.30;1756364;79;25839;-80
2022/06/21 00:40:32;;;;;;;9.23;5.55;;;;;;;14.17;93.06;99885.88;1757486;79;26566;-80
2022/06/21 00:43:23;;;;;;;6.85;5.60;;;;;;;14.19;93.05;99874.34;1765515;79;25270;-80
2022/06/21 00:45:51;;;;;;;6.55;5.80;;;;;;;14.16;92.80;99870.75;1756908;79;28373;-80
2022/06/21 00:48:35;;;;;;;11.10;5.22;;;;;;;14.19;93.00;99872.17;1751248;79;26216;-80
2022/06/21 00:51:13;;;;;;;11.55;5.42;;;;;;;14.20;92.59;99881.36;1755460;79;26425;-80
2022/06/21 00:53:54;;;;;;;7.28;5.80;;;;;;;14.11;92.05;99875.19;1751300;79;26612;-80
2022/06/21 00:56:39;;;;;;;;;;;;;;;14.06;92.20;99873.17;1751703;79;25377;-80
2022/06/21 00:59:18;;;;;;;7.00;5.83;;;;;;;13.99;92.15;99870.25;1749563;79;28341;-80
2022/06/21 01:01:46;;;;;;;10.35;5.47;;;;;;;13.94;92.29;99858.29;1755997;79;25818;-80
2022/06/21 01:04:36;;;;;;;6.72;5.17;;;;;;;13.94;91.93;99862.33;1678855;82;26564;-80
2022/06/21 01:07:07;;;;;;;7.30;5.25;;;;;;;13.89;91.65;99854.64;1661400;82;25859;-81
2022/06/21 01:09:48;;;;;;;;;;;;;;;13.84;91.50;99847.75;1700624;82;25994;-80
2022/06/21 01:12:26;;;;;;;7.05;5.08;;;;;;;13.82;91.45;99841.78;1693494;82;27319;-80
2022/06/21 01:15:09;;;;;;;6.62;5.42;;;;;;;13.80;91.77;99839.32;1697458;82;26057;-80
2022/06/21 01:17:38;;;;;;;9.33;4.80;;;;;;;13.83;91.55;99838.88;1752459;79;25834;-80
2022/06/21 01:20:08;;;;;;;7.05;5.42;;;;;;;13.84;91.42;99835.13;1754266;79;26545;-80
2022/06/21 01:22:41;;;;;;;;;;;;;;;13.83;91.36;99832.16;1767423;79;26017;-80
2022/06/21 01:25:44;;;;;;;8.80;4.97;;;;;;;13.85;91.13;99837.30;1764490;79;27689;-80
2022/06/21 01:28:10;;;;;;;5.17;4.67;;;;;;;13.79;90.89;99832.83;1763858;79;27000;-81
2022/06/21 01:30:37;;;;;;;8.35;5.87;;;;;;;13.78;90.83;99823.09;1764956;81;26630;-80
2022/06/21 01:33:06;;;;;;;10.55;6.17;;;;;;;13.81;90.68;99834.22;1753327;79;26561;-80
2022/06/21 01:35:49;;;;;;;9.08;5.78;;;;;;;13.79;90.39;99839.01;1756378;79;26225;-81
2022/06/21 01:38:21;;;;;;;10.80;6.65;;;;;;;13.77;90.21;99843.80;1752870;79;27471;-80
2022/06/21 01:40:52;;;;;;;8.95;6.03;;;;;;;13.72;90.17;99846.36;1754108;79;25822;-81
2022/06/21 01:43:23;;;;;;;16.52;5.90;;;;;;;13.67;90.15;99851.59;1765450;79;26397;-80
2022/06/21 01:45:55;;;;;;;;;;;;;;;13.63;90.19;99857.13;1759670;79;25893;-80
2022/06/21 01:48:26;;;;;;;6.70;4.37;;;;;;;13.61;90.27;99861.08;1761718;79;26111;-80
2022/06/21 01:51:00;;;;;;;7.03;3.90;;;;;;;13.55;90.54;99866.02;1723548;81;27460;-80
2022/06/21 01:53:28;;;;;;;7.12;4.50;;;;;;;13.48;90.67;99869.29;1773104;79;25830;-80
2022/06/21 01:56:12;;;;;;;6.92;4.10;;;;;;;13.38;90.95;99874.38;1756607;79;25603;-80
2022/06/21 01:58:44;;;;;;;9.55;4.95;;;;;;;13.32;91.18;99876.61;1765190;79;26276;-80
2022/06/21 02:01:18;;;;;;;5.80;4.20;;;;;;;13.26;91.64;99868.89;1752218;79;25305;-80
2022/06/21 02:03:48;;;;;;;10.23;4.15;;;;;;;13.23;91.72;99872.55;1764578;79;27444;-80
2022/06/21 02:06:16;;;;;;;6.10;4.20;;;;;;;13.19;91.88;99876.22;1740478;80;26254;-80
2022/06/21 02:08:51;;;;;;;4.97;4.20;;;;;;;13.19;92.02;99870.84;1768530;79;25759;-81
2022/06/21 02:11:35;;;;;;;6.03;4.58;;;;;;;13.21;92.41;99873.30;1761426;79;26600;-80
2022/06/21 02:16:53;;;;;;;6.95;4.67;;;;;;;13.15;92.83;99873.13;1729769;81;28313;-80
2022/06/21 02:19:30;;;;;;;6.85;4.97;;;;;;;13.16;93.07;99865.89;1760374;79;26027;-80
2022/06/21 02:21:57;;;;;;;10.32;4.92;;;;;;;13.15;93.15;99869.64;1761278;79;25807;-80
2022/06/21 02:24:28;;;;;;;7.28;4.80;;;;;;;13.14;93.54;99866.12;1761484;79;25962;-80
2022/06/21 02:26:52;;;;;;;10.93;5.78;;;;;;;13.16;93.55;99860.51;1759614;79;25890;-80
2022/06/21 02:29:18;;;;;;;8.05;5.60;;;;;;;13.19;93.61;99854.70;1762279;79;28075;-80
2022/06/21 02:31:44;;;;;;;8.83;5.70;;;;;;;13.22;93.62;99857.44;1758490;79;25974;-81
2022/06/21 02:34:22;;;;;;;9.15;5.83;;;;;;;13.22;93.42;99856.09;1769013;79;25835;-80
2022/06/21 02:37:01;;;;;;;9.55;5.62;;;;;;;13.23;93.50;99857.25;1768039;78;25807;-80
2022/06/21 02:39:32;;;;;;;9.45;5.92;;;;;;;13.22;93.53;99856.92;1754532;79;26157;-80
2022/06/21 02:42:07;;;;;;;9.53;5.85;;;;;;;13.22;93.47;99849.37;1765961;79;27431;-80
2022/06/21 02:44:44;;;;;;;9.85;6.42;;;;;;;13.23;93.40;99853.73;1750809;79;25845;-80
2022/06/21 02:47:18;;;;;;;12.65;6.55;;;;;;;13.23;93.55;99851.87;1755259;79;25800;-80
2022/06/21 02:49:56;;;;;;;8.03;6.05;;;;;;;13.24;93.56;99854.04;1756846;79;26562;-80
2022/06/21 02:52:33;;;;;;;8.13;5.55;;;;;;;13.24;93.83;99858.08;1761547;79;25779;-80
2022/06/21 02:55:26;;;;;;;9.40;5.87;;;;;;;13.24;93.81;99852.15;1759387;79;27431;-80
2022/06/21 02:58:16;;;;;;;11.05;6.75;;;;;;;13.28;93.93;99846.63;1747394;79;26485;-80
2022/06/21 03:00:43;;;;;;;9.78;6.03;;;;;;;13.33;93.74;99844.09;1762357;79;26064;-80
2022/06/21 03:03:15;;;;;;;14.83;6.65;;;;;;;13.31;93.57;99846.19;1727912;81;25808;-79
2022/06/21 03:05:41;;;;;;;11.10;6.15;;;;;;;13.31;93.49;99841.33;1759308;79;25878;-80
2022/06/21 03:08:09;;;;;;;11.30;7.17;;;;;;;13.31;93.57;99839.98;1749922;79;28276;-80
2022/06/21 03:10:40;;;;;;;8.13;6.53;;;;;;;13.33;93.56;99840.58;1765856;79;25757;-81
2022/06/21 03:13:19;;;;;;;;;;;;;;;13.32;93.42;99842.47;1771184;79;26656;-80
2022/06/21 03:15:50;;;;;;;11.73;6.65;;;;;;;13.33;93.63;99840.06;1761249;79;25768;-81
2022/06/21 03:18:24;;;;;;;9.05;6.47;;;;;;;13.33;93.77;99838.72;1774950;79;25659;-80
2022/06/21 03:20:54;;;;;;;13.55;7.75;;;;;;;13.36;93.56;99840.98;1754435;79;27462;-80
2022/06/21 03:23:21;;;;;;;11.38;7.17;;;;;;;13.36;93.41;99843.67;1760272;79;25812;-80
2022/06/21 03:26:01;;;;;;;11.33;6.50;;;;;;;13.33;93.21;99834.69;1763953;79;25988;-80
2022/06/21 03:28:38;;;;;;;8.00;7.17;;;;;;;13.34;93.35;99834.17;1755109;79;26389;-80
2022/06/21 03:31:28;;;;;;;11.00;7.60;;;;;;;13.34;93.62;99830.97;1765733;79;25879;-80
2022/06/21 03:33:59;;;;;;;10.28;7.92;;;;;;;13.35;93.69;99834.45;1762398;79;28252;-80
2022/06/21 03:36:26;;;;;;;11.12;7.70;;;;;;;13.33;93.58;99832.52;1764347;79;26010;-80
2022/06/21 03:39:01;;;;;;;9.45;8.35;;;;;;;13.30;93.68;99835.12;1765374;79;25836;-80
2022/06/21 03:41:43;;;;;;;12.95;7.50;;;;;;;13.32;93.79;99833.58;1763092;80;26150;-80
2022/06/21 03:44:29;;;;;;;11.45;6.50;;;;;;;13.36;94.00;99838.29;1761401;79;25763;-80
2022/06/21 03:47:04;;;;;;;10.50;6.53;;;;;;;13.38;93.57;99836.20;1759127;79;28056;-80
2022/06/21 03:49:54;;;;;;;9.50;6.00;;;;;;;13.40;93.60;99831.92;1768429;79;25792;-80
2022/06/21 03:52:43;;;;;;;7.00;5.03;;;;;;;13.46;93.38;99843.97;1760177;80;25315;-80
2022/06/21 03:55:50;;;;;;;7.65;5.75;;;;;;;13.51;93.04;99836.57;1762030;79;26619;-80
2022/06/21 03:58:22;;;;;;;9.60;5.58;;;;;;;13.55;93.12;99842.63;1761858;79;25952;-80
2022/06/21 04:01:02;;;;;;;11.25;5.75;;;;;;;13.55;92.82;99833.21;1754494;79;27425;-79
2022/06/21 04:03:50;;;;;;;7.03;6.28;;;;;;;13.52;92.15;99831.47;1748984;79;25946;-80
2022/06/21 04:06:47;;;;;;;6.67;5.90;;;;;;;13.51;92.05;99831.19;1762162;79;26557;-80
2022/06/21 04:09:34;;;;;;;10.40;5.83;;;;;;;13.56;92.51;99836.70;1674127;79;26616;-79
2022/06/21 04:12:47;;;;;;;8.25;5.90;;;;;;;13.58;91.92;99837.33;1773977;79;25977;-80
2022/06/21 04:15:38;;;;;;;8.05;6.08;;;;;;;13.56;91.87;99830.80;1761939;80;27453;-80
2022/06/21 04:18:18;;;;;;;7.72;5.55;;;;;;;13.57;92.07;99847.27;1761327;79;25937;-80
2022/06/21 04:21:08;;;;;;;10.58;6.65;;;;;;;13.55;91.42;99840.45;1760429;79;26467;-80
2022/06/21 04:23:39;;;;;;;6.90;5.90;;;;;;;13.52;91.39;99838.20;1757839;80;25949;-81
2022/06/21 04:26:26;;;;;;;13.30;6.47;;;;;;;13.48;91.13;99836.48;1759096;79;26002;-80
2022/06/21 04:28:58;;;;;;;10.88;6.58;;;;;;;13.45;91.23;99832.89;1758600;79;28423;-80
2022/06/21 04:31:36;;;;;;;8.75;6.78;;;;;;;13.49;91.29;99830.59;1755928;79;25810;-80
2022/06/21 04:34:26;;;;;;;10.70;5.97;;;;;;;13.54;91.30;99826.69;1722107;81;25979;-80
2022/06/21 04:37:16;;;;;;;8.40;6.22;;;;;;;13.58;91.30;99828.70;1707228;81;26662;-80
2022/06/21 04:39:54;;;;;;;8.75;6.67;;;;;;;13.66;91.13;99830.29;1762094;79;26621;-80
2022/06/21 04:42:35;;;;;;;9.30;5.95;;;;;;;13.75;90.41;99828.95;1771149;79;27514;-80
2022/06/21 04:45:34;;;;;;;9.80;6.12;;;;;;;13.76;89.79;99829.23;1758589;79;26141;-80
2022/06/21 04:48:43;;;;;;;6.92;5.70;;;;;;;13.74;89.75;99832.16;1754890;79;25830;-80
2022/06/21 04:51:21;;;;;;;6.95;5.83;;;;;;;13.74;89.49;99831.33;1761657;79;25779;-80
2022/06/21 04:54:05;;;;;;;8.20;4.55;;;;;;;13.69;89.34;99831.17;1764867;79;25926;-80
2022/06/21 04:57:04;;;;;;;8.40;4.83;;;;;;;13.59;88.46;99825.50;1754993;79;27453;-80
2022/06/21 04:59:37;;;;;;;7.70;4.37;;;;;;;13.49;88.62;99834.11;1750003;79;25354;-80
2022/06/21 05:02:08;;;;;;;6.12;4.92;;;;;;;13.46;89.17;99830.52;1749945;79;26499;-80
2022/06/21 05:04:38;;;;;;;5.72;4.97;;;;;;;13.43;89.56;99834.19;1764410;79;25956;-80
2022/06/21 05:07:08;;;;;;;;;;;;;;;13.42;89.96;99829.84;1760126;79;25900;-81
2022/06/21 05:09:35;;;;;;;11.15;5.83;;;;;;;13.39;90.44;99832.45;1757043;79;28142;-81
2022/06/21 05:12:07;;;;;;;8.00;6.08;;;;;;;13.34;90.57;99833.66;1766681;79;26281;-81
2022/06/21 05:14:39;;;;;;;8.63;6.22;;;;;;;13.33;90.40;99832.00;1761163;79;25736;-80
2022/06/21 05:17:11;;;;;;;9.73;6.30;;;;;;;13.30;90.55;99833.77;1755655;79;26366;-80
2022/06/21 05:19:42;;;;;;;8.98;6.40;;;;;;;13.28;90.66;99844.48;1757079;79;25976;-80
2022/06/21 05:22:21;;;;;;;;;;;;;;;13.25;90.49;99839.53;1760247;79;28310;-80
2022/06/21 05:24:48;;;;;;;6.22;5.53;;;;;;;13.28;90.60;99837.20;1760919;79;25803;-80
2022/06/21 05:27:40;;;;;;;6.00;4.60;;;;;;;13.43;91.65;99844.95;1764865;79;26286;-80
2022/06/21 05:30:24;;;;;;;8.03;5.20;;;;;;;13.54;91.02;99829.38;1736456;79;26267;-80
2022/06/21 05:32:55;;;;;;;6.10;4.75;;;;;;;13.60;89.57;99838.72;1760122;79;25704;-79
2022/06/21 05:35:25;;;;;;;;;;;;;;;13.70;89.75;99830.14;1731719;80;27463;-80
2022/06/21 05:38:02;;;;;;;5.35;3.27;;;;;;;13.87;88.23;99827.13;1760500;79;25883;-80
2022/06/21 05:40:37;;;;;;;4.87;3.72;;;;;;;14.04;88.55;99824.11;1756943;79;25832;-80
2022/06/21 05:43:05;;;;;;;8.08;4.15;;;;;;;14.23;87.78;99831.09;1755904;79;25769;-81
2022/06/21 05:45:34;;;;;;;7.28;4.00;;;;;;;14.44;88.20;99823.03;1765401;79;26415;-80
2022/06/21 05:48:06;;;;;;;6.87;3.37;;;;;;;14.56;87.63;99829.30;1767533;79;27462;-80
2022/06/21 05:50:37;;;;;;;5.42;3.67;;;;;;;14.57;85.32;99837.14;1758951;79;25879;-80
2022/06/21 05:53:11;;;;;;;6.62;4.00;;;;;;;14.52;85.63;99836.20;1749967;79;25708;-80
2022/06/21 05:55:42;;;;;;;6.70;3.20;;;;;;;14.50;85.03;99832.88;1734887;81;26536;-80
2022/06/21 05:58:16;;;;;;;;;;;;;;;14.44;84.06;99838.68;1766640;79;25870;-79
2022/06/21 06:00:57;;;;;;;3.33;3.00;;;;;;;14.35;83.84;99841.95;1753998;79;27572;-80
2022/06/21 06:03:34;;;;;;;6.90;3.12;;;;;;;14.28;84.28;99838.48;1758289;79;25378;-80
2022/06/21 06:06:08;;;;;;;6.62;2.80;;;;;;;14.31;84.75;99846.13;1760155;79;25849;-80
2022/06/21 06:08:39;;;;;;;2.72;2.15;;;;;;;14.32;84.49;99839.19;1749428;79;26329;-79
2022/06/21 06:11:11;;;;;;;4.15;2.55;;;;;;;14.37;84.10;99833.11;1762560;79;25802;-80
2022/06/21 06:13:41;;;;;;;4.28;2.83;;;;;;;14.31;82.81;99834.83;1755518;79;27542;-79
2022/06/21 06:16:18;;;;;;;8.33;2.50;;;;;;;14.19;82.86;99834.47;1751260;79;25964;-80
2022/06/21 06:18:50;;;;;;;3.90;2.50;;;;;;;14.11;83.12;99834.27;1759999;79;25808;-80
2022/06/21 06:21:34;;;;;;;3.08;1.90;;;;;;;14.05;82.90;99841.09;1759701;79;25821;-80
2022/06/21 06:24:21;;;;;;;2.75;2.42;;;;;;;14.02;82.40;99840.19;1758963;79;25779;-81
2022/06/21 06:26:52;;;;;;;4.17;2.65;;;;;;;13.97;83.71;99846.25;1750613;79;28010;-80
2022/06/21 06:29:33;;;;;;;4.10;2.60;;;;;;;13.98;83.78;99847.08;1763616;79;25899;-79
2022/06/21 06:32:20;;;;;;;8.00;2.40;;;;;;;13.96;83.39;99843.80;1756578;79;26497;-80
2022/06/21 06:34:51;;;;;;;5.58;2.20;;;;;;;13.94;83.75;99849.41;1747389;79;25857;-80
2022/06/21 06:37:38;;;;;;;3.67;2.27;;;;;;;13.93;83.48;99843.72;1750345;79;26000;-80
2022/06/21 06:40:25;;;;;;;3.30;2.08;;;;;;;13.89;83.28;99841.18;1757373;79;27448;-79
2022/06/21 06:43:04;;;;;;;4.05;2.22;;;;;;;13.83;83.18;99835.36;1761987;79;25842;-79
2022/06/21 06:45:36;;;;;;;3.72;2.52;;;;;;;13.80;83.79;99842.02;1758476;79;25784;-79
2022/06/21 06:48:08;;;;;;;4.22;2.42;;;;;;;13.75;83.41;99848.59;1767626;78;26296;-80
2022/06/21 06:50:43;;;;;;;5.10;2.50;;;;;;;13.67;84.73;99856.14;1751775;79;26400;-80
2022/06/21 06:53:21;;;;;;;2.55;1.90;;;;;;;13.58;85.77;99861.55;1759637;79;28089;-79
2022/06/21 06:55:51;;;;;;;3.37;2.10;;;;;;;13.41;86.01;99861.28;1754714;79;25883;-80
2022/06/21 06:58:36;;;;;;;6.35;2.50;;;;;;;13.25;86.06;99863.22;1764378;79;26523;-80
2022/06/21 07:01:16;;;;;;;4.22;2.58;;;;;;;13.13;87.10;99859.08;1764498;79;25797;-80
2022/06/21 07:03:47;;;;;;;6.58;3.20;;;;;;;13.04;87.60;99859.05;1764846;79;25901;-80
2022/06/21 07:06:23;;;;;;;;;;;;;;;13.01;87.74;99858.13;1762006;79;27447;-80
2022/06/21 07:09:00;;;;;;;2.95;2.72;;;;;;;13.01;88.69;99867.55;1748375;79;25785;-80
2022/06/21 07:11:41;;;;;;;4.95;2.58;;;;;;;12.98;88.46;99865.83;1762722;79;25869;-79
2022/06/21 07:14:21;;;;;;;5.35;2.60;;;;;;;12.98;89.23;99865.83;1752269;79;25790;-80
2022/06/21 07:16:59;;;;;;;6.40;2.67;;;;;;;12.99;89.12;99861.56;1764953;79;25945;-80
2022/06/21 07:19:26;;;;;;;5.45;3.45;;;;;;;13.00;89.57;99846.27;1759848;80;28273;-80
2022/06/21 07:21:53;;;;;;;3.95;2.83;;;;;;;13.14;89.75;99865.29;1758731;79;25736;-80
2022/06/21 07:24:20;;;;;;;3.30;3.00;;;;;;;13.14;88.86;99863.43;1761045;79;25695;-80
2022/06/21 07:26:55;;;;;;;3.60;2.55;;;;;;;13.25;89.84;99867.26;1756036;79;25864;-80
2022/06/21 07:29:36;;;;;;;3.90;3.00;;;;;;;13.47;90.23;99860.39;1759218;79;26381;-80
2022/06/21 07:32:11;;;;;;;3.00;2.40;;;;;;;13.80;90.95;99859.52;1756017;79;27533;-80
2022/06/21 07:34:48;;;;;;;5.28;2.83;;;;;;;14.17;90.92;99852.20;1758337;79;25729;-80
2022/06/21 07:37:29;;;;;;;3.67;2.60;;;;;;;14.30;89.67;99845.84;1761407;79;25827;-80
2022/06/21 07:40:16;;;;;;;5.55;2.58;;;;;;;14.27;87.68;99846.25;1755169;79;25879;-80
2022/06/21 07:42:47;;;;;;;2.47;1.77;;;;;;;14.15;85.69;99843.53;1759627;79;26476;-79
2022/06/21 07:45:40;;;;;;;2.52;1.35;;;;;;;14.03;85.30;99853.97;1758453;79;28417;-80
2022/06/21 07:48:24;;;;;;;4.12;1.67;;;;;;;13.93;83.55;99855.31;1763493;79;25947;-80
2022/06/21 07:50:59;;;;;;;2.55;2.10;;;;;;;13.82;84.05;99859.28;1748335;79;26432;-80
2022/06/21 07:53:36;;;;;;;6.25;2.75;;;;;;;13.73;84.01;99871.38;1756724;79;26548;-81
2022/06/21 07:56:25;;;;;;;2.72;2.17;;;;;;;13.67;84.71;99877.16;1764478;79;26258;-80
2022/06/21 07:59:02;;;;;;;3.08;2.33;;;;;;;13.64;83.52;99881.63;1763496;79;27468;-80
2022/06/21 08:07:28;;;;;;;5.85;1.90;;;;;;;13.73;83.99;99890.22;1692120;79;26292;-80
2022/06/21 08:10:36;;;;;;;1.87;1.67;;;;;;;13.73;83.47;99896.95;1743917;80;25947;-80
2022/06/21 08:13:03;;;;;;;6.83;2.65;;;;;;;13.72;82.99;99896.16;1698737;82;28749;-79
2022/06/21 08:15:37;;;;;;;5.12;2.42;;;;;;;13.69;83.35;99896.59;1700250;82;25926;-80
2022/06/21 08:18:14;;;;;;;5.17;2.33;;;;;;;13.68;82.75;99896.31;1726454;79;26529;-79
2022/06/21 08:20:49;;;;;;;2.55;2.22;;;;;;;13.65;82.61;99893.22;1762544;79;26335;-80
2022/06/21 08:23:30;;;;;;;2.83;2.20;;;;;;;13.62;82.64;99899.87;1755865;79;25681;-79
2022/06/21 08:26:08;;;;;;;3.98;1.60;;;;;;;13.64;83.28;99894.28;1764336;79;27451;-80
2022/06/21 08:28:55;;;;;;;3.75;1.90;;;;;;;13.70;83.62;99900.11;1756948;79;25859;-80
2022/06/21 08:31:34;;;;;;;3.10;1.70;;;;;;;13.75;83.50;99902.97;1759241;79;26416;-79
2022/06/21 08:34:23;;;;;;;3.98;1.70;;;;;;;13.76;82.27;99901.39;1764627;79;25792;-80
2022/06/21 08:37:05;;;;;;;3.83;1.90;;;;;;;13.80;83.24;99890.98;1757062;79;25956;-79
2022/06/21 08:39:49;;;;;;;4.05;1.70;;;;;;;13.87;82.40;99899.30;1752124;79;27444;-79
2022/06/21 08:42:46;;;;;;;1.80;1.70;;;;;;;14.02;82.62;99898.91;1753357;79;25892;-79
2022/06/21 08:45:42;;;;;;;4.60;2.10;;;;;;;14.14;82.84;99902.99;1763827;79;25838;-80
2022/06/21 08:48:37;;;;;;;3.30;1.40;;;;;;;14.28;82.65;99905.31;1715258;79;25859;-80
2022/06/21 08:51:52;;;;;;;2.12;1.45;;;;;;;14.43;81.95;99908.46;1751840;79;26791;-79
2022/06/21 08:54:32;;;;;;;1.80;1.20;;;;;;;14.68;79.43;99898.87;1752651;79;28367;-80
2022/06/21 08:57:19;;;;;;;2.60;1.55;;;;;;;14.76;79.71;99895.83;1759668;79;26292;-79
2022/06/21 09:00:12;;;;;;;2.62;1.32;;;;;;;14.77;79.62;99898.01;1765815;79;25796;-80
2022/06/21 09:03:14;;;;;;;1.98;1.40;;;;;;;14.76;77.79;99899.05;1737732;79;26011;-80
2022/06/21 09:05:52;;;;;;;6.00;1.70;;;;;;;14.72;79.26;99891.12;1758951;79;26166;-80
2022/06/21 09:08:49;;;;;;;3.67;1.30;;;;;;;14.68;77.80;99905.61;1754724;79;27539;-80
2022/06/21 09:11:52;;;;;;;3.58;1.45;;;;;;;14.60;76.80;99909.98;1751146;79;25493;-82
2022/06/21 09:14:47;;;;;;;5.47;1.35;;;;;;;14.52;76.65;99904.38;1764120;79;26453;-80
2022/06/21 09:17:46;;;;;;;1.75;1.42;;;;;;;14.43;76.19;99909.81;1764543;79;25334;-80
2022/06/21 09:20:53;;;;;;;2.08;1.25;;;;;;;14.33;77.17;99908.16;1750717;79;25988;-80
2022/06/21 09:24:01;;;;;;;2.85;1.10;;;;;;;14.29;76.95;99912.88;1755683;79;28320;-79
2022/06/21 09:26:36;;;;;;;2.75;1.45;;;;;;;14.27;76.86;99916.30;1700493;82;25875;-79
2022/06/21 09:29:26;;;;;;;3.87;1.35;;;;;;;14.28;77.22;99916.61;1759438;79;25835;-80
2022/06/21 09:32:13;;;;;;;2.22;1.45;;;;;;;14.29;76.58;99908.84;1764390;79;26002;-79
2022/06/21 09:35:02;;;;;;;2.27;1.37;;;;;;;14.32;77.60;99919.17;1723421;79;26581;-81
2022/06/21 09:37:40;;;;;;;2.08;1.20;;;;;;;14.39;77.95;99912.64;1746258;79;26894;-80
2022/06/21 09:40:24;;;;;;;4.65;1.07;;;;;;;14.46;78.06;99916.07;1755965;79;25807;-79
2022/06/21 09:43:05;;;;;;;1.70;0.98;;;;;;;14.54;77.89;99917.64;1764623;79;25803;-79
2022/06/21 09:45:52;;;;;;;4.40;1.40;;;;;;;14.52;77.75;99920.55;1753227;79;25953;-80
2022/06/21 09:48:32;;;;;;;3.42;1.57;;;;;;;14.44;78.08;99925.42;1764682;79;25780;-79
2022/06/21 09:51:07;;;;;;;4.05;1.60;;;;;;;14.29;79.01;99935.27;1762280;79;27799;-80
2022/06/21 09:53:50;;;;;;;3.77;1.80;;;;;;;14.16;79.53;99942.64;1764471;79;26016;-80
2022/06/21 09:56:44;;;;;;;4.67;1.50;;;;;;;14.11;80.55;99941.17;1751732;80;25819;-79
2022/06/21 09:59:20;;;;;;;3.30;1.75;;;;;;;14.11;81.26;99942.52;1758945;80;25780;-80
2022/06/21 10:02:07;;;;;;;1.90;1.60;;;;;;;14.22;82.41;99933.69;1756617;80;25828;-80
2022/06/21 10:05:08;;;;;;;3.65;2.00;;;;;;;14.39;82.75;99936.89;1757033;79;27466;-79
2022/06/21 10:08:10;;;;;;;;;;;;;;;14.56;82.04;99929.02;1746938;79;27090;-80
2022/06/21 10:11:03;;;;;;;;;;;;;;;14.64;82.09;99921.95;1758914;79;26547;-80
2022/06/21 10:13:57;;;;;;;3.75;1.70;;;;;;;14.87;82.19;99927.92;1751385;79;25888;-80
2022/06/21 10:19:59;;;;;;;4.37;1.95;;;;;;;15.25;82.76;99911.63;1721473;78;27116;-80
2022/06/21 10:22:55;;;;;;;4.40;1.70;;;;;;;15.53;82.21;99898.81;1711562;81;25982;-80
2022/06/21 10:25:51;;;;;;;3.52;1.62;;;;;;;15.80;80.83;99912.10;1719456;81;26211;-80
2022/06/21 10:28:44;;;;;;;1.72;1.50;;;;;;;16.05;79.51;99905.08;1710329;82;25801;-80
2022/06/21 10:31:25;;;;;;;3.47;1.85;;;;;;;16.26;79.39;99900.38;1765062;80;25760;-80
2022/06/21 10:34:12;;;;;;;1.30;1.20;;;;;;;16.42;78.44;99898.27;1744934;79;27120;-79
2022/06/21 10:37:07;;;;;;;8.40;1.98;;;;;;;16.54;76.79;99892.30;1768075;79;25894;-81
2022/06/21 10:40:13;;;;;;;3.65;1.47;;;;;;;16.48;72.55;99894.59;1739480;81;26432;-80
2022/06/21 10:42:57;;;;;;;2.52;1.10;;;;;;;16.31;72.90;99899.66;1741932;80;25848;-80
2022/06/21 10:45:50;;;;;;;2.62;1.47;;;;;;;16.05;74.15;99917.23;1737742;80;25990;-80
2022/06/21 10:48:54;;;;;;;2.33;1.17;;;;;;;15.78;76.84;99926.92;1750306;80;27476;-80
2022/06/21 10:51:42;;;;;;;5.00;1.40;;;;;;;15.69;77.61;99925.11;1787374;79;25802;-80
2022/06/21 10:54:35;;;;;;;2.00;1.10;;;;;;;15.64;78.44;99920.94;1778342;79;26066;-81
2022/06/21 10:57:39;;;;;;;1.72;0.80;;;;;;;15.64;78.29;99914.19;1777339;79;26549;-81
2022/06/21 11:03:19;;;;;;;2.62;1.05;;;;;;;15.61;78.64;99914.65;1746294;80;27629;-80
2022/06/21 11:08:58;;;;;;;4.10;1.42;;;;;;;15.78;79.46;99907.47;1714644;78;25888;-80
2022/06/21 11:11:36;;;;;;;3.27;1.10;;;;;;;15.97;79.62;99907.61;1758277;80;26426;-80
2022/06/21 11:14:20;;;;;;;5.67;1.20;;;;;;;16.15;80.06;99902.05;1696431;81;26030;-81
2022/06/21 11:17:16;;;;;;;1.70;0.90;;;;;;;16.38;79.83;99903.84;1722815;81;27533;-80
2022/06/21 11:19:57;;;;;;;3.40;1.12;;;;;;;16.60;78.95;99894.03;1739160;80;27064;-80
2022/06/21 11:22:49;;;;;;;;;;;;;;;16.82;77.77;99896.33;1722987;80;25333;-80
2022/06/21 11:25:31;;;;;;;;;;;;;;;17.08;78.34;99890.81;1763802;79;25817;-79
2022/06/21 11:28:19;;;;;;;6.17;1.12;;;;;;;17.16;76.50;99891.75;1745047;80;25957;-80
2022/06/21 11:31:27;;;;;;;4.53;1.10;;;;;;;17.09;74.99;99888.91;1772097;79;28272;-79
2022/06/21 11:34:10;;;;;;;3.85;0.90;;;;;;;16.92;73.63;99904.61;1766535;79;26520;-80
2022/06/21 11:37:02;;;;;;;4.03;0.75;;;;;;;16.74;71.80;99900.77;1737713;80;25777;-81
2022/06/21 11:39:46;;;;;;;4.72;0.70;;;;;;;16.64;71.06;99904.65;1728677;80;26485;-80
2022/06/21 11:42:32;;;;;;;4.03;1.17;;;;;;;16.67;70.14;99900.64;1719142;80;25795;-80
2022/06/21 11:45:31;;;;;;;3.58;0.82;;;;;;;16.83;70.67;99907.42;1768622;79;26983;-80
2022/06/21 11:48:23;;;;;;;4.37;0.80;;;;;;;16.87;70.44;99904.52;1662868;84;25459;-79
2022/06/21 11:51:04;;;;;;;1.77;0.78;;;;;;;16.81;69.30;99900.09;1744695;79;25839;-80
2022/06/21 11:53:58;;;;;;;;;;;;;;;16.70;69.52;99912.34;1730222;81;25835;-80
2022/06/21 11:57:18;;;;;;;2.62;0.50;;;;;;;16.58;68.76;99917.80;1738422;80;26572;-79
2022/06/21 11:59:59;;;;;;;2.75;0.70;;;;;;;16.47;68.09;99914.56;1746222;79;27441;-80
2022/06/21 12:02:57;;;;;;;3.58;0.68;;;;;;;16.53;68.34;99919.03;1752238;80;25766;-79
2022/06/21 12:05:44;;;;;;;3.52;0.78;;;;;;;16.70;68.35;99921.25;1770500;80;26568;-80
2022/06/21 12:08:36;;;;;;;2.37;0.68;;;;;;;16.95;68.25;99908.72;1726814;80;25963;-79
2022/06/21 12:11:19;;;;;;;3.83;0.88;;;;;;;17.28;68.72;99910.63;1722722;80;26026;-80
2022/06/21 12:14:06;;;;;;;3.05;0.70;;;;;;;17.52;65.84;99912.92;1765212;79;27413;-80
2022/06/21 12:16:46;;;;;;;3.30;0.88;;;;;;;17.46;64.53;99911.70;1759583;79;26477;-81
2022/06/21 12:19:18;;;;;;;2.08;0.68;;;;;;;17.33;64.86;99922.34;1762961;79;25968;-80
2022/06/21 12:21:52;;;;;;;3.25;1.00;;;;;;;17.22;65.69;99921.88;1767274;79;26604;-81
2022/06/21 12:24:23;;;;;;;6.05;0.75;;;;;;;17.17;66.43;99921.00;1756801;79;25907;-80
2022/06/21 12:26:50;;;;;;;3.83;0.78;;;;;;;17.10;66.51;99923.03;1752602;79;28294;-80
2022/06/21 12:29:20;;;;;;;1.98;0.88;;;;;;;17.21;68.07;99931.61;1774682;79;25892;-80
2022/06/21 12:31:54;;;;;;;3.92;0.78;;;;;;;17.48;67.93;99909.56;1739048;79;25836;-81
2022/06/21 12:34:47;;;;;;;1.52;0.50;;;;;;;17.65;67.21;99922.58;1741833;79;26547;-80
2022/06/21 12:37:27;;;;;;;5.80;0.90;;;;;;;17.62;65.91;99920.38;1726330;81;25842;-80
2022/06/21 12:40:02;;;;;;;2.55;0.70;;;;;;;17.51;65.85;99950.53;1707423;81;28286;-80
2022/06/21 12:43:01;;;;;;;3.77;0.78;;;;;;;17.27;65.14;99960.40;1758823;79;25948;-80
2022/06/21 12:45:45;;;;;;;1.27;0.57;;;;;;;16.93;66.92;99956.32;1750131;80;26489;-80
2022/06/21 12:48:49;;;;;;;1.35;0.50;;;;;;;16.46;69.18;99977.83;1741991;80;26596;-80
2022/06/21 12:51:59;;;;;;;3.08;1.25;;;;;;;15.97;72.14;99990.00;1755694;79;25784;-80
2022/06/21 12:54:59;;;;;;;2.45;0.80;;;;;;;15.44;75.18;99999.56;1745964;80;27438;-80
2022/06/21 12:58:03;;;;;;;3.10;0.95;;;;;;;14.99;76.18;100007.80;1740906;80;25741;-81